Friday, October 19, 2018, 8:16 AM EDT
Back to Local

KILG, Wilmington New Castle Co

Location: New Castle, DE, United States Lat: 39.667
Local Time: 8:16 AM EDT (12:16 GMT) Lon: -75.6
Time Zone: US/Eastern Elev: 78 ft

Show me the last for .
Show Decoded

2018-10-19 07:51 METAR KILG 191151Z 00000KT 10SM CLR 03/01 A3036 RMK AO2 SLP282 T00330011 10044
                 20017 58001 $ =
2018-10-19 06:51 METAR KILG 191051Z 00000KT 10SM CLR 02/01 A3037 RMK AO2 SLP283 T00220011 $ =
2018-10-19 05:51 METAR KILG 190951Z AUTO 00000KT 10SM CLR 03/01 A3037 RMK AO2 SLP284 T00280011 $
                 =
2018-10-19 04:51 METAR KILG 190851Z AUTO 00000KT 10SM CLR 03/01 A3037 RMK AO2 SLP283 T00280011
                 57002 $ =
2018-10-19 03:51 METAR KILG 190751Z AUTO 28003KT 10SM CLR 03/02 A3037 RMK AO2 SLP283 T00330017 $
                 =
2018-10-19 02:51 METAR KILG 190651Z AUTO 00000KT 10SM CLR 03/02 A3037 RMK AO2 SLP284 T00330017 $
                 =
2018-10-19 01:51 METAR KILG 190551Z AUTO 24003KT 10SM CLR 04/02 A3037 RMK AO2 SLP285 T00440017
                 10089 20033 56005 $ =
2018-10-19 00:51 METAR KILG 190451Z AUTO 00000KT 10SM CLR 05/02 A3037 RMK AO2 SLP285 T00500022
                 401280033 $ =
2018-10-18 23:51 METAR KILG 190351Z AUTO 30004KT 10SM CLR 03/02 A3038 RMK AO2 SLP286 T00330022 =
2018-10-18 22:51 METAR KILG 190251Z 00000KT 10SM CLR 05/03 A3039 RMK AO2 SLP290 T00500028 56002 =
2018-10-18 21:51 METAR KILG 190151Z 00000KT 10SM CLR 06/02 A3039 RMK AO2 SLP289 T00610017 =
2018-10-18 20:51 METAR KILG 190051Z 00000KT 10SM CLR 07/01 A3039 RMK AO2 SLP290 T00720011 =
2018-10-18 19:51 METAR KILG 182351Z 00000KT 10SM CLR 08/00 A3039 RMK AO2 SLP292 T00830000 10128
                 20078 53009 =
2018-10-18 18:51 METAR KILG 182251Z 27003KT 10SM CLR 08/M01 A3039 RMK AO2 SLP289 T00831006 =
2018-10-18 17:51 METAR KILG 182151Z 31008KT 10SM CLR 11/M02 A3037 RMK AO2 SLP284 T01061017 =
2018-10-18 16:51 METAR KILG 182051Z 31010KT 10SM CLR 12/M02 A3037 RMK AO2 SLP283 T01171022 56009
                 =
2018-10-18 15:51 METAR KILG 181951Z 29011KT 10SM CLR 12/M02 A3038 RMK AO2 SLP286 T01221017 =
2018-10-18 14:51 METAR KILG 181851Z 32012G17KT 10SM CLR 13/M02 A3038 RMK AO2 SLP287 T01281022 =
2018-10-18 13:51 METAR KILG 181751Z 28012KT 10SM FEW055 12/M02 A3039 RMK AO2 SLP292 T01171017
                 10122 20061 58009 =
2018-10-18 12:51 METAR KILG 181651Z 29008KT 10SM CLR 11/M02 A3041 RMK AO2 SLP297 T01111017 =
2018-10-18 11:51 METAR KILG 181551Z 29012KT 10SM SCT050 10/M02 A3042 RMK AO2 SLP301 T01001017 =
2018-10-18 10:51 METAR KILG 181451Z 31010KT 10SM BKN050 09/M02 A3042 RMK AO2 SLP301 T00941017
                 51016 =
2018-10-18 09:51 METAR KILG 181351Z 31011G16KT 10SM BKN045 OVC055 09/M01 A3042 RMK AO2 SLP301
                 T00941011 =
2018-10-18 08:51 METAR KILG 181251Z 32007KT 10SM BKN055 08/M01 A3040 RMK AO2 SLP295 T00781006 =

Support USWX by starting your Amazon purchase here.